Elizabeth, PA (15037)

6:34 AM EST on January 18, 2017 (GMT -0500)
Jefferson Hills | | Change Station

Elev 919 ft 40.29 °N, 79.91 °W | Updated 22 seconds ago

Rain
Rain
45.1 °F
Feels Like 45 °F
N
0.0
Wind Variable Wind from WSW
Gusts 0.0 mph

Today
High -- | Low -- °F
--% Chance of Precip.
Yesterday
High -- | Low -- °F
Precip. -- in
Pressure 29.96 in
Visibility 3.0 miles
Clouds Mostly Cloudy 700 ft
Mostly Cloudy 1100 ft
Overcast 2700 ft
Windchill 45 °F
Dew Point 39 °F
Humidity 79%
Rainfall 0.05 in
Snow Depth Not available.
7:38 AM 5:21 PM
Waning Gibbous, 64% visible
SPECI KAGC 181119Z VRB06G16KT 3SM -RA BR BKN007 BKN011 OVC027 07/04 A2996 RMK AO2 P0000 T00670044
Pressure 29.96 in
Visibility 3.0 miles
Clouds Mostly Cloudy 700 ft
Mostly Cloudy 1100 ft
Overcast 2700 ft
Windchill 45 °F
Dew Point 39 °F
Humidity 79%
Rainfall 0.05 in
Snow Depth Not available.
7:38 AM 5:21 PM
Waning Gibbous, 64% visible
SPECI KAGC 181119Z VRB06G16KT 3SM -RA BR BKN007 BKN011 OVC027 07/04 A2996 RMK AO2 P0000 T00670044

Get Your Daily Forecast Email!

Thanks for signing up!

Be on the lookout for a verification email in your inbox.

You'll start receiving the daily forecast at 8 AM.

×

10-Day Weather Forecast

Almanac

Astronomy

Jan. 18, 2017 Rise Set
Actual Time
Civil Twilight
Nautical Twilight
Astronomical Twilight
Moon
Length of Visible Light
Length of Day
Tomorrow will be .
, % of the Moon is Illuminated

Today's Extremes

State Highs State Lows

Community

WunderPhotos

Upload Photos

1,962,540 photos uploaded!

WunderBlog® & News

Nearby

Air Quality

  Air Quality AQ Index Pollutant
Not available.

Snow Depth

Station Depth Elevation

Earthquake Activity

City Distance Mag. Time & Date
Minimum magnitude displayed is 2.5.

Coastal Water Temperatures

Place Temperature

Stations

Nearby Weather Stations

Station Location Temp. Windchill Dew Point Humidity Wind Precip. Elev Updated Type
                   

Watches & Warnings

There are currently no watches in effect.